Página principal
METAR-TAF:

METAR-TAF

Aeroportos :

Cleburne Municipal Airport

Cleburne, Texas, Estados Unidos

latitude: 32-21-13N, longitude: 097-26-01W, altura: 260 m

Observação actual do tempo

O boletim foi feito há 15 minutos, às 00:35 UTC
Vento 9 kt de nor-noroeste com rajadas de 15 kt
Temperatura 7°C
Humidade 93%
Pressão 1008 hPa
Visibilidade: 16.1 km
Encobertoa uma altura de 1100 ft

METAR: KCPT 140035Z AUTO 33009G15KT 10SM OVC011 07/06 A2978 RMK AO2

Hora: 18:50 (00:50 UTC)


TAF: em falta

Observações e previsões do tempo de mais de 4000 aeroportos (mensagens METAR e TAF).

As estações disponíveis são os pontos amarelos e vermelhos sobre o mapa.

Mova o rato sobre o mapa para ver o nome da estação.

Depois clique no ponto para visualizar as observações e previsões meteorológicas.

Para alterar o mapa : clique nos botões verdes com uma cruz preta para aumentar o zoom; no botão verde com uma pitada de zoom; ou nas setas verdes para mapas adjacentes.


METAR-TAF: